sensor_id;sensor_type;location;lat;lon;timestamp;pressure;altitude;pressure_sealevel;temperature;humidity
53246;BME280;39569;51.090;-1.786;2023-03-16T00:00:12;100306.50;;;15.60;64.63
53246;BME280;39569;51.090;-1.786;2023-03-16T00:02:39;100297.06;;;15.44;64.68
53246;BME280;39569;51.090;-1.786;2023-03-16T00:05:06;100291.03;;;15.80;63.90
53246;BME280;39569;51.090;-1.786;2023-03-16T00:07:35;100286.19;;;16.13;62.76
53246;BME280;39569;51.090;-1.786;2023-03-16T00:10:02;100280.19;;;16.11;62.61
53246;BME280;39569;51.090;-1.786;2023-03-16T00:12:29;100280.22;;;15.55;64.04
53246;BME280;39569;51.090;-1.786;2023-03-16T00:14:59;100283.59;;;15.44;64.70
53246;BME280;39569;51.090;-1.786;2023-03-16T00:17:26;100279.34;;;15.24;65.80
53246;BME280;39569;51.090;-1.786;2023-03-16T00:19:54;100271.78;;;16.01;63.62
53246;BME280;39569;51.090;-1.786;2023-03-16T00:22:22;100267.81;;;16.04;62.93
53246;BME280;39569;51.090;-1.786;2023-03-16T00:24:50;100267.06;;;16.39;62.10
53246;BME280;39569;51.090;-1.786;2023-03-16T00:27:18;100263.31;;;15.98;63.22
53246;BME280;39569;51.090;-1.786;2023-03-16T00:29:48;100271.56;;;15.78;63.78
53246;BME280;39569;51.090;-1.786;2023-03-16T00:32:21;100252.06;;;15.83;64.23
53246;BME280;39569;51.090;-1.786;2023-03-16T00:34:49;100251.69;;;16.22;62.73
53246;BME280;39569;51.090;-1.786;2023-03-16T00:37:17;100250.13;;;16.32;62.34
53246;BME280;39569;51.090;-1.786;2023-03-16T00:39:45;100249.91;;;16.34;62.28
53246;BME280;39569;51.090;-1.786;2023-03-16T00:42:15;100256.25;;;15.79;63.99
53246;BME280;39569;51.090;-1.786;2023-03-16T00:44:42;100244.88;;;15.70;64.13
53246;BME280;39569;51.090;-1.786;2023-03-16T00:47:09;100241.44;;;16.12;63.07
53246;BME280;39569;51.090;-1.786;2023-03-16T00:49:38;100232.06;;;16.15;63.13
53246;BME280;39569;51.090;-1.786;2023-03-16T00:52:08;100229.28;;;16.03;62.69
53246;BME280;39569;51.090;-1.786;2023-03-16T00:54:39;100222.81;;;16.47;62.12
53246;BME280;39569;51.090;-1.786;2023-03-16T00:57:08;100219.88;;;16.30;61.98
53246;BME280;39569;51.090;-1.786;2023-03-16T00:59:37;100224.69;;;16.28;61.96
53246;BME280;39569;51.090;-1.786;2023-03-16T01:02:05;100218.59;;;16.15;62.75
53246;BME280;39569;51.090;-1.786;2023-03-16T01:04:33;100217.94;;;15.77;63.42
53246;BME280;39569;51.090;-1.786;2023-03-16T01:07:01;100217.91;;;15.52;64.57
53246;BME280;39569;51.090;-1.786;2023-03-16T01:09:28;100210.13;;;15.93;63.73
53246;BME280;39569;51.090;-1.786;2023-03-16T01:11:54;100199.91;;;16.20;62.57
53246;BME280;39569;51.090;-1.786;2023-03-16T01:14:21;100202.41;;;15.97;63.63
53246;BME280;39569;51.090;-1.786;2023-03-16T01:16:50;100206.69;;;16.04;62.91
53246;BME280;39569;51.090;-1.786;2023-03-16T01:19:16;100200.47;;;16.22;62.73
53246;BME280;39569;51.090;-1.786;2023-03-16T01:21:43;100200.50;;;15.79;63.40
53246;BME280;39569;51.090;-1.786;2023-03-16T01:24:10;100194.78;;;15.94;63.63
53246;BME280;39569;51.090;-1.786;2023-03-16T01:26:37;100190.75;;;16.21;62.97
53246;BME280;39569;51.090;-1.786;2023-03-16T01:29:03;100196.06;;;16.09;63.06
53246;BME280;39569;51.090;-1.786;2023-03-16T01:31:30;100199.66;;;15.60;64.40
53246;BME280;39569;51.090;-1.786;2023-03-16T01:33:58;100193.28;;;15.55;64.19
53246;BME280;39569;51.090;-1.786;2023-03-16T01:36:28;100183.34;;;15.73;64.30
53246;BME280;39569;51.090;-1.786;2023-03-16T01:38:55;100188.56;;;15.93;63.86
53246;BME280;39569;51.090;-1.786;2023-03-16T01:41:22;100167.66;;;15.89;63.49
53246;BME280;39569;51.090;-1.786;2023-03-16T01:43:50;100169.94;;;15.92;63.66
53246;BME280;39569;51.090;-1.786;2023-03-16T01:46:20;100162.59;;;15.99;63.60
53246;BME280;39569;51.090;-1.786;2023-03-16T01:49:07;100175.81;;;15.82;63.94
53246;BME280;39569;51.090;-1.786;2023-03-16T01:51:39;100163.38;;;15.81;64.17
53246;BME280;39569;51.090;-1.786;2023-03-16T01:54:14;100170.91;;;15.97;64.04
53246;BME280;39569;51.090;-1.786;2023-03-16T01:56:51;100172.28;;;15.63;64.52
53246;BME280;39569;51.090;-1.786;2023-03-16T01:59:21;100167.31;;;15.29;65.53
53246;BME280;39569;51.090;-1.786;2023-03-16T02:01:50;100159.06;;;15.55;65.05
53246;BME280;39569;51.090;-1.786;2023-03-16T02:04:31;100165.13;;;15.51;65.44
53246;BME280;39569;51.090;-1.786;2023-03-16T02:07:04;100148.91;;;16.00;63.95
53246;BME280;39569;51.090;-1.786;2023-03-16T02:09:32;100155.78;;;15.53;64.12
53246;BME280;39569;51.090;-1.786;2023-03-16T02:12:00;100144.34;;;16.01;63.78
53246;BME280;39569;51.090;-1.786;2023-03-16T02:14:27;100148.56;;;15.23;65.31
53246;BME280;39569;51.090;-1.786;2023-03-16T02:16:55;100129.34;;;15.87;63.98
53246;BME280;39569;51.090;-1.786;2023-03-16T02:19:33;100136.50;;;15.99;63.54
53246;BME280;39569;51.090;-1.786;2023-03-16T02:22:05;100135.94;;;15.91;63.73
53246;BME280;39569;51.090;-1.786;2023-03-16T02:24:33;100134.75;;;15.87;63.20
53246;BME280;39569;51.090;-1.786;2023-03-16T02:27:02;100132.50;;;15.84;63.31
53246;BME280;39569;51.090;-1.786;2023-03-16T02:29:52;100137.53;;;15.80;63.99
53246;BME280;39569;51.090;-1.786;2023-03-16T02:32:22;100144.09;;;15.66;64.01
53246;BME280;39569;51.090;-1.786;2023-03-16T02:34:49;100124.75;;;16.12;62.85
53246;BME280;39569;51.090;-1.786;2023-03-16T02:37:16;100129.44;;;16.16;62.87
53246;BME280;39569;51.090;-1.786;2023-03-16T02:39:43;100121.31;;;16.05;63.04
53246;BME280;39569;51.090;-1.786;2023-03-16T02:42:12;100129.47;;;16.34;62.58
53246;BME280;39569;51.090;-1.786;2023-03-16T02:44:41;100125.19;;;16.27;62.38
53246;BME280;39569;51.090;-1.786;2023-03-16T02:47:20;100117.25;;;15.77;63.93
53246;BME280;39569;51.090;-1.786;2023-03-16T02:49:49;100108.66;;;16.05;62.64
53246;BME280;39569;51.090;-1.786;2023-03-16T02:52:16;100127.00;;;15.97;63.26
53246;BME280;39569;51.090;-1.786;2023-03-16T02:54:43;100112.75;;;16.26;62.48
53246;BME280;39569;51.090;-1.786;2023-03-16T02:57:10;100107.22;;;16.21;62.34
53246;BME280;39569;51.090;-1.786;2023-03-16T02:59:36;100103.03;;;16.25;62.26
53246;BME280;39569;51.090;-1.786;2023-03-16T03:02:03;100101.47;;;16.17;62.15
53246;BME280;39569;51.090;-1.786;2023-03-16T03:04:31;100112.00;;;16.19;62.25
53246;BME280;39569;51.090;-1.786;2023-03-16T03:06:58;100104.88;;;16.42;61.97
53246;BME280;39569;51.090;-1.786;2023-03-16T03:09:29;100111.34;;;16.23;62.39
53246;BME280;39569;51.090;-1.786;2023-03-16T03:11:56;100109.97;;;16.14;62.94
53246;BME280;39569;51.090;-1.786;2023-03-16T03:14:23;100108.03;;;16.57;61.31
53246;BME280;39569;51.090;-1.786;2023-03-16T03:16:52;100106.63;;;16.19;62.24
53246;BME280;39569;51.090;-1.786;2023-03-16T03:19:20;100107.13;;;16.45;61.62
53246;BME280;39569;51.090;-1.786;2023-03-16T03:21:49;100108.88;;;16.04;62.63
53246;BME280;39569;51.090;-1.786;2023-03-16T03:24:16;100106.00;;;16.35;61.77
53246;BME280;39569;51.090;-1.786;2023-03-16T03:26:43;100103.72;;;16.02;62.53
53246;BME280;39569;51.090;-1.786;2023-03-16T03:29:10;100095.81;;;16.37;61.36
53246;BME280;39569;51.090;-1.786;2023-03-16T03:31:37;100097.88;;;15.87;62.86
53246;BME280;39569;51.090;-1.786;2023-03-16T03:34:04;100083.81;;;16.03;62.47
53246;BME280;39569;51.090;-1.786;2023-03-16T03:36:31;100079.31;;;15.61;63.45
53246;BME280;39569;51.090;-1.786;2023-03-16T03:38:59;100081.00;;;16.28;61.88
53246;BME280;39569;51.090;-1.786;2023-03-16T03:41:29;100075.81;;;15.97;62.51
53246;BME280;39569;51.090;-1.786;2023-03-16T03:43:57;100074.38;;;15.76;63.19
53246;BME280;39569;51.090;-1.786;2023-03-16T03:46:24;100080.09;;;15.86;62.95
53246;BME280;39569;51.090;-1.786;2023-03-16T03:48:50;100082.94;;;15.48;63.39
53246;BME280;39569;51.090;-1.786;2023-03-16T03:51:17;100073.72;;;15.81;62.84
53246;BME280;39569;51.090;-1.786;2023-03-16T03:53:44;100064.78;;;16.16;62.19
53246;BME280;39569;51.090;-1.786;2023-03-16T03:56:12;100068.59;;;16.27;61.90
53246;BME280;39569;51.090;-1.786;2023-03-16T03:58:39;100070.56;;;15.84;62.58
53246;BME280;39569;51.090;-1.786;2023-03-16T04:01:05;100077.06;;;15.76;63.36
53246;BME280;39569;51.090;-1.786;2023-03-16T04:03:32;100070.66;;;15.95;62.40
53246;BME280;39569;51.090;-1.786;2023-03-16T04:05:59;100064.72;;;16.23;61.80
53246;BME280;39569;51.090;-1.786;2023-03-16T04:08:26;100067.50;;;15.98;62.27
53246;BME280;39569;51.090;-1.786;2023-03-16T04:10:52;100081.47;;;15.70;62.91
53246;BME280;39569;51.090;-1.786;2023-03-16T04:13:21;100065.84;;;15.61;63.72
53246;BME280;39569;51.090;-1.786;2023-03-16T04:15:47;100064.19;;;15.96;62.67
53246;BME280;39569;51.090;-1.786;2023-03-16T04:18:14;100060.88;;;16.30;61.63
53246;BME280;39569;51.090;-1.786;2023-03-16T04:20:41;100058.00;;;15.96;62.10
53246;BME280;39569;51.090;-1.786;2023-03-16T04:23:09;100045.59;;;15.95;62.63
53246;BME280;39569;51.090;-1.786;2023-03-16T04:25:35;100049.13;;;16.25;61.58
53246;BME280;39569;51.090;-1.786;2023-03-16T04:28:04;100057.56;;;15.99;62.40
53246;BME280;39569;51.090;-1.786;2023-03-16T04:30:32;100058.50;;;16.22;61.56
53246;BME280;39569;51.090;-1.786;2023-03-16T04:32:59;100059.41;;;15.98;62.02
53246;BME280;39569;51.090;-1.786;2023-03-16T04:35:26;100070.13;;;15.87;62.74
53246;BME280;39569;51.090;-1.786;2023-03-16T04:37:53;100067.63;;;15.24;63.92
53246;BME280;39569;51.090;-1.786;2023-03-16T04:40:19;100063.25;;;15.72;62.61
53246;BME280;39569;51.090;-1.786;2023-03-16T04:42:47;100053.13;;;15.68;63.22
53246;BME280;39569;51.090;-1.786;2023-03-16T04:45:14;100052.25;;;15.56;62.89
53246;BME280;39569;51.090;-1.786;2023-03-16T04:47:43;100050.09;;;15.40;64.02
53246;BME280;39569;51.090;-1.786;2023-03-16T04:50:11;100043.03;;;15.45;62.96
53246;BME280;39569;51.090;-1.786;2023-03-16T04:52:38;100047.09;;;15.72;62.37
53246;BME280;39569;51.090;-1.786;2023-03-16T04:55:06;100046.03;;;15.73;62.34
53246;BME280;39569;51.090;-1.786;2023-03-16T04:57:33;100045.59;;;15.95;61.57
53246;BME280;39569;51.090;-1.786;2023-03-16T05:00:00;100039.91;;;15.66;62.38
53246;BME280;39569;51.090;-1.786;2023-03-16T05:02:26;100048.16;;;15.71;61.96
53246;BME280;39569;51.090;-1.786;2023-03-16T05:04:54;100047.47;;;15.76;62.27
53246;BME280;39569;51.090;-1.786;2023-03-16T05:07:21;100042.81;;;15.83;62.14
53246;BME280;39569;51.090;-1.786;2023-03-16T05:09:48;100047.41;;;15.83;62.08
53246;BME280;39569;51.090;-1.786;2023-03-16T05:12:15;100031.06;;;15.59;62.86
53246;BME280;39569;51.090;-1.786;2023-03-16T05:14:42;100026.31;;;16.09;61.08
53246;BME280;39569;51.090;-1.786;2023-03-16T05:17:09;100037.56;;;15.52;62.58
53246;BME280;39569;51.090;-1.786;2023-03-16T05:19:39;100022.25;;;15.70;61.91
53246;BME280;39569;51.090;-1.786;2023-03-16T05:22:08;100026.41;;;15.06;64.19
53246;BME280;39569;51.090;-1.786;2023-03-16T05:24:35;100026.66;;;15.22;63.33
53246;BME280;39569;51.090;-1.786;2023-03-16T05:27:02;100022.47;;;15.51;62.60
53246;BME280;39569;51.090;-1.786;2023-03-16T05:29:29;100014.41;;;15.26;63.00
53246;BME280;39569;51.090;-1.786;2023-03-16T05:31:56;100005.88;;;15.72;62.37
53246;BME280;39569;51.090;-1.786;2023-03-16T05:34:23;100016.78;;;15.59;62.46
53246;BME280;39569;51.090;-1.786;2023-03-16T05:36:50;100014.19;;;15.52;62.38
53246;BME280;39569;51.090;-1.786;2023-03-16T05:39:18;100012.63;;;15.38;63.02
53246;BME280;39569;51.090;-1.786;2023-03-16T05:41:45;100016.34;;;15.19;63.65
53246;BME280;39569;51.090;-1.786;2023-03-16T05:44:12;100017.31;;;15.86;61.67
53246;BME280;39569;51.090;-1.786;2023-03-16T05:46:39;100030.47;;;15.57;62.02
53246;BME280;39569;51.090;-1.786;2023-03-16T05:49:05;100035.09;;;15.50;62.64
53246;BME280;39569;51.090;-1.786;2023-03-16T05:51:32;100023.91;;;15.71;62.03
53246;BME280;39569;51.090;-1.786;2023-03-16T05:53:59;100030.91;;;15.91;61.32
53246;BME280;39569;51.090;-1.786;2023-03-16T05:56:27;100024.94;;;15.89;61.54
53246;BME280;39569;51.090;-1.786;2023-03-16T05:58:55;100035.88;;;15.33;62.65
53246;BME280;39569;51.090;-1.786;2023-03-16T06:01:22;100031.16;;;15.89;61.75
53246;BME280;39569;51.090;-1.786;2023-03-16T06:03:49;100008.31;;;15.37;62.50
53246;BME280;39569;51.090;-1.786;2023-03-16T06:06:17;100000.78;;;15.46;62.77
53246;BME280;39569;51.090;-1.786;2023-03-16T06:08:44;100003.41;;;15.52;62.24
53246;BME280;39569;51.090;-1.786;2023-03-16T06:11:11;99998.69;;;15.48;61.96
53246;BME280;39569;51.090;-1.786;2023-03-16T06:13:39;99986.38;;;15.58;61.89
53246;BME280;39569;51.090;-1.786;2023-03-16T06:16:06;99984.84;;;15.62;61.75
53246;BME280;39569;51.090;-1.786;2023-03-16T06:18:35;99984.69;;;15.39;61.70
53246;BME280;39569;51.090;-1.786;2023-03-16T06:21:02;99970.75;;;15.49;61.94
53246;BME280;39569;51.090;-1.786;2023-03-16T06:23:29;99981.06;;;15.52;61.78
53246;BME280;39569;51.090;-1.786;2023-03-16T06:25:56;99993.09;;;15.67;61.38
53246;BME280;39569;51.090;-1.786;2023-03-16T06:28:24;99976.13;;;15.67;61.22
53246;BME280;39569;51.090;-1.786;2023-03-16T06:30:53;99976.22;;;15.60;61.34
53246;BME280;39569;51.090;-1.786;2023-03-16T06:33:20;99965.91;;;15.15;63.00
53246;BME280;39569;51.090;-1.786;2023-03-16T06:35:47;99959.50;;;15.34;62.10
53246;BME280;39569;51.090;-1.786;2023-03-16T06:38:14;99962.56;;;15.55;61.86
53246;BME280;39569;51.090;-1.786;2023-03-16T06:40:41;99970.22;;;15.58;61.50
53246;BME280;39569;51.090;-1.786;2023-03-16T06:43:08;99965.00;;;15.45;61.58
53246;BME280;39569;51.090;-1.786;2023-03-16T06:45:35;99951.66;;;15.68;61.08
53246;BME280;39569;51.090;-1.786;2023-03-16T06:48:04;99958.53;;;15.64;61.19
53246;BME280;39569;51.090;-1.786;2023-03-16T06:50:31;99955.84;;;15.46;61.28
53246;BME280;39569;51.090;-1.786;2023-03-16T06:52:58;99956.47;;;15.48;61.08
53246;BME280;39569;51.090;-1.786;2023-03-16T06:55:24;99963.31;;;15.81;60.80
53246;BME280;39569;51.090;-1.786;2023-03-16T06:57:51;99964.59;;;15.60;60.99
53246;BME280;39569;51.090;-1.786;2023-03-16T07:00:18;99971.69;;;15.72;61.03
53246;BME280;39569;51.090;-1.786;2023-03-16T07:02:46;99963.19;;;15.57;60.76
53246;BME280;39569;51.090;-1.786;2023-03-16T07:05:14;99979.25;;;16.12;59.87
53246;BME280;39569;51.090;-1.786;2023-03-16T07:07:41;99974.38;;;16.20;59.39
53246;BME280;39569;51.090;-1.786;2023-03-16T07:10:10;99979.81;;;16.02;59.61
53246;BME280;39569;51.090;-1.786;2023-03-16T07:12:37;99975.06;;;16.16;59.28
53246;BME280;39569;51.090;-1.786;2023-03-16T07:15:05;99983.88;;;16.23;59.16
53246;BME280;39569;51.090;-1.786;2023-03-16T07:17:32;99989.16;;;16.00;59.95
53246;BME280;39569;51.090;-1.786;2023-03-16T07:19:59;99979.69;;;15.61;60.71
53246;BME280;39569;51.090;-1.786;2023-03-16T07:22:31;99982.69;;;15.71;60.51
53246;BME280;39569;51.090;-1.786;2023-03-16T07:24:58;99981.31;;;16.28;59.30
53246;BME280;39569;51.090;-1.786;2023-03-16T07:27:25;99984.53;;;16.07;59.64
53246;BME280;39569;51.090;-1.786;2023-03-16T07:29:53;99988.66;;;16.21;59.38
53246;BME280;39569;51.090;-1.786;2023-03-16T07:32:21;99985.69;;;16.11;59.68
53246;BME280;39569;51.090;-1.786;2023-03-16T07:34:48;99988.97;;;16.13;59.41
53246;BME280;39569;51.090;-1.786;2023-03-16T07:37:14;99982.47;;;15.72;60.40
53246;BME280;39569;51.090;-1.786;2023-03-16T07:39:43;99978.72;;;16.21;59.40
53246;BME280;39569;51.090;-1.786;2023-03-16T07:42:10;99981.66;;;16.20;59.43
53246;BME280;39569;51.090;-1.786;2023-03-16T07:44:36;99976.63;;;15.94;59.83
53246;BME280;39569;51.090;-1.786;2023-03-16T07:47:03;99983.47;;;16.08;59.82
53246;BME280;39569;51.090;-1.786;2023-03-16T07:49:31;99987.38;;;15.94;60.30
53246;BME280;39569;51.090;-1.786;2023-03-16T07:51:58;99988.53;;;16.16;59.51
53246;BME280;39569;51.090;-1.786;2023-03-16T07:54:24;99984.88;;;16.10;60.12
53246;BME280;39569;51.090;-1.786;2023-03-16T07:56:53;99983.44;;;16.37;59.66
53246;BME280;39569;51.090;-1.786;2023-03-16T07:59:19;99987.25;;;16.18;59.19
53246;BME280;39569;51.090;-1.786;2023-03-16T08:01:46;99983.81;;;16.82;58.31
53246;BME280;39569;51.090;-1.786;2023-03-16T08:04:13;99995.28;;;16.36;58.83
53246;BME280;39569;51.090;-1.786;2023-03-16T08:06:40;99998.97;;;16.24;59.27
53246;BME280;39569;51.090;-1.786;2023-03-16T08:09:07;99990.34;;;16.63;58.74
53246;BME280;39569;51.090;-1.786;2023-03-16T08:11:34;100000.53;;;16.02;59.64
53246;BME280;39569;51.090;-1.786;2023-03-16T08:14:02;99992.91;;;16.28;59.09
53246;BME280;39569;51.090;-1.786;2023-03-16T08:16:30;99981.44;;;16.74;57.96
53246;BME280;39569;51.090;-1.786;2023-03-16T08:18:57;99986.88;;;16.15;59.04
53246;BME280;39569;51.090;-1.786;2023-03-16T08:21:26;99984.28;;;17.02;57.49
53246;BME280;39569;51.090;-1.786;2023-03-16T08:23:54;99971.22;;;16.53;57.97
53246;BME280;39569;51.090;-1.786;2023-03-16T08:26:22;99976.53;;;16.94;57.71
53246;BME280;39569;51.090;-1.786;2023-03-16T08:28:51;99985.00;;;17.09;56.88
53246;BME280;39569;51.090;-1.786;2023-03-16T08:31:20;99970.75;;;16.56;57.82
53246;BME280;39569;51.090;-1.786;2023-03-16T08:33:47;99974.06;;;16.69;58.23
53246;BME280;39569;51.090;-1.786;2023-03-16T08:36:16;99978.38;;;16.59;58.23
53246;BME280;39569;51.090;-1.786;2023-03-16T08:38:43;99987.69;;;16.45;58.61
53246;BME280;39569;51.090;-1.786;2023-03-16T08:41:11;99986.44;;;16.47;58.73
53246;BME280;39569;51.090;-1.786;2023-03-16T08:43:40;99985.41;;;16.60;58.71
53246;BME280;39569;51.090;-1.786;2023-03-16T08:46:09;99982.66;;;16.90;57.45
53246;BME280;39569;51.090;-1.786;2023-03-16T08:48:39;99980.75;;;16.79;58.29
53246;BME280;39569;51.090;-1.786;2023-03-16T08:51:06;99976.19;;;17.02;57.51
53246;BME280;39569;51.090;-1.786;2023-03-16T08:53:34;99972.72;;;16.49;58.44
53246;BME280;39569;51.090;-1.786;2023-03-16T08:56:01;99982.50;;;16.73;58.12
53246;BME280;39569;51.090;-1.786;2023-03-16T08:58:29;99985.41;;;16.60;58.33
53246;BME280;39569;51.090;-1.786;2023-03-16T09:00:57;99982.28;;;16.86;57.73
53246;BME280;39569;51.090;-1.786;2023-03-16T09:03:25;99974.19;;;17.09;56.85
53246;BME280;39569;51.090;-1.786;2023-03-16T09:05:58;99996.22;;;16.83;57.83
53246;BME280;39569;51.090;-1.786;2023-03-16T09:08:26;99977.38;;;16.42;58.54
53246;BME280;39569;51.090;-1.786;2023-03-16T09:10:58;99987.78;;;17.14;57.25
53246;BME280;39569;51.090;-1.786;2023-03-16T09:13:26;99992.50;;;16.96;57.80
53246;BME280;39569;51.090;-1.786;2023-03-16T09:15:53;99983.56;;;16.72;57.96
53246;BME280;39569;51.090;-1.786;2023-03-16T09:18:19;99983.31;;;17.43;56.71
53246;BME280;39569;51.090;-1.786;2023-03-16T09:20:47;99976.69;;;16.99;56.99
53246;BME280;39569;51.090;-1.786;2023-03-16T09:23:15;99971.97;;;17.06;56.74
53246;BME280;39569;51.090;-1.786;2023-03-16T09:25:43;99974.19;;;16.86;57.10
53246;BME280;39569;51.090;-1.786;2023-03-16T09:28:10;99976.44;;;17.12;56.25
53246;BME280;39569;51.090;-1.786;2023-03-16T09:30:37;99962.19;;;17.51;55.58
53246;BME280;39569;51.090;-1.786;2023-03-16T09:33:04;99971.88;;;17.01;56.71
53246;BME280;39569;51.090;-1.786;2023-03-16T09:35:31;99966.78;;;17.16;56.13
53246;BME280;39569;51.090;-1.786;2023-03-16T09:37:57;99957.75;;;17.22;55.35
53246;BME280;39569;51.090;-1.786;2023-03-16T09:40:27;99966.69;;;17.23;55.64
53246;BME280;39569;51.090;-1.786;2023-03-16T09:43:09;99945.22;;;18.07;54.24
53246;BME280;39569;51.090;-1.786;2023-03-16T09:45:44;99938.69;;;18.48;53.19
53246;BME280;39569;51.090;-1.786;2023-03-16T09:48:14;99934.03;;;18.15;53.47
53246;BME280;39569;51.090;-1.786;2023-03-16T09:50:43;99927.63;;;18.66;52.53
53246;BME280;39569;51.090;-1.786;2023-03-16T09:53:17;99918.00;;;19.08;51.25
53246;BME280;39569;51.090;-1.786;2023-03-16T09:55:52;99908.19;;;18.86;51.33
53246;BME280;39569;51.090;-1.786;2023-03-16T09:58:21;99913.00;;;19.38;50.55
53246;BME280;39569;51.090;-1.786;2023-03-16T10:00:54;99919.41;;;19.49;50.86
53246;BME280;39569;51.090;-1.786;2023-03-16T10:03:34;99920.41;;;19.43;50.84
53246;BME280;39569;51.090;-1.786;2023-03-16T10:06:08;99923.19;;;18.93;51.06
53246;BME280;39569;51.090;-1.786;2023-03-16T10:08:39;99918.63;;;19.15;50.65
53246;BME280;39569;51.090;-1.786;2023-03-16T10:11:24;99925.47;;;19.83;48.89
53246;BME280;39569;51.090;-1.786;2023-03-16T10:13:57;99935.00;;;19.64;49.78
53246;BME280;39569;51.090;-1.786;2023-03-16T10:16:30;99937.31;;;19.98;49.46
53246;BME280;39569;51.090;-1.786;2023-03-16T10:19:01;99947.13;;;20.04;48.56
53246;BME280;39569;51.090;-1.786;2023-03-16T10:21:30;99940.69;;;19.24;51.08
53246;BME280;39569;51.090;-1.786;2023-03-16T10:23:59;99952.00;;;19.37;49.92
53246;BME280;39569;51.090;-1.786;2023-03-16T10:26:35;99934.94;;;18.21;52.21
53246;BME280;39569;51.090;-1.786;2023-03-16T10:29:09;99933.47;;;18.30;52.88
53246;BME280;39569;51.090;-1.786;2023-03-16T10:31:39;99939.56;;;18.37;52.80
53246;BME280;39569;51.090;-1.786;2023-03-16T10:34:07;99943.44;;;18.13;53.33
53246;BME280;39569;51.090;-1.786;2023-03-16T10:36:37;99941.50;;;18.25;53.02
53246;BME280;39569;51.090;-1.786;2023-03-16T10:39:06;99946.88;;;17.80;54.13
53246;BME280;39569;51.090;-1.786;2023-03-16T10:41:36;99955.22;;;17.79;53.82
53246;BME280;39569;51.090;-1.786;2023-03-16T10:44:09;99940.44;;;17.98;53.45
53246;BME280;39569;51.090;-1.786;2023-03-16T10:46:38;99934.19;;;18.25;52.87
53246;BME280;39569;51.090;-1.786;2023-03-16T10:49:15;99931.75;;;18.24;52.65
53246;BME280;39569;51.090;-1.786;2023-03-16T10:51:44;99934.19;;;18.53;52.61
53246;BME280;39569;51.090;-1.786;2023-03-16T10:54:15;99932.25;;;18.21;51.54
53246;BME280;39569;51.090;-1.786;2023-03-16T10:56:45;99937.09;;;18.35;51.91
53246;BME280;39569;51.090;-1.786;2023-03-16T10:59:26;99931.66;;;17.62;52.61
53246;BME280;39569;51.090;-1.786;2023-03-16T11:01:54;99920.16;;;17.95;52.83
53246;BME280;39569;51.090;-1.786;2023-03-16T11:04:21;99918.72;;;18.21;52.38
53246;BME280;39569;51.090;-1.786;2023-03-16T11:06:52;99917.69;;;17.94;53.36
53246;BME280;39569;51.090;-1.786;2023-03-16T11:09:22;99907.34;;;17.91;52.97
53246;BME280;39569;51.090;-1.786;2023-03-16T11:11:52;99891.06;;;17.86;53.17
53246;BME280;39569;51.090;-1.786;2023-03-16T11:14:21;99884.78;;;18.58;52.01
53246;BME280;39569;51.090;-1.786;2023-03-16T11:16:57;99890.06;;;18.36;52.32
53246;BME280;39569;51.090;-1.786;2023-03-16T11:19:28;99878.63;;;18.46;52.34
53246;BME280;39569;51.090;-1.786;2023-03-16T11:21:59;99892.69;;;18.31;52.32
53246;BME280;39569;51.090;-1.786;2023-03-16T11:24:31;99892.31;;;17.95;52.81
53246;BME280;39569;51.090;-1.786;2023-03-16T11:27:04;99871.97;;;18.53;51.95
53246;BME280;39569;51.090;-1.786;2023-03-16T11:29:45;99874.03;;;18.46;52.09
53246;BME280;39569;51.090;-1.786;2023-03-16T11:32:19;99882.97;;;18.47;52.10
53246;BME280;39569;51.090;-1.786;2023-03-16T11:34:49;99883.63;;;18.54;51.85
53246;BME280;39569;51.090;-1.786;2023-03-16T11:37:26;99877.13;;;18.72;51.79
53246;BME280;39569;51.090;-1.786;2023-03-16T11:40:02;99880.34;;;17.91;53.26
53246;BME280;39569;51.090;-1.786;2023-03-16T11:42:43;99886.16;;;18.44;51.90
53246;BME280;39569;51.090;-1.786;2023-03-16T11:45:18;99873.19;;;18.79;50.82
53246;BME280;39569;51.090;-1.786;2023-03-16T11:48:18;99874.28;;;18.45;51.10
53246;BME280;39569;51.090;-1.786;2023-03-16T11:50:57;99856.75;;;18.64;50.79
53246;BME280;39569;51.090;-1.786;2023-03-16T11:53:48;99855.94;;;18.85;50.25
53246;BME280;39569;51.090;-1.786;2023-03-16T11:56:37;99848.25;;;18.94;49.31
53246;BME280;39569;51.090;-1.786;2023-03-16T11:59:26;99842.19;;;19.30;48.43
53246;BME280;39569;51.090;-1.786;2023-03-16T12:02:08;99851.50;;;18.96;48.56
53246;BME280;39569;51.090;-1.786;2023-03-16T12:04:52;99839.44;;;19.46;47.61
53246;BME280;39569;51.090;-1.786;2023-03-16T12:07:33;99833.56;;;20.76;46.21
53246;BME280;39569;51.090;-1.786;2023-03-16T12:10:11;99837.63;;;21.25;44.32
53246;BME280;39569;51.090;-1.786;2023-03-16T12:12:55;99836.22;;;22.00;42.39
53246;BME280;39569;51.090;-1.786;2023-03-16T12:15:31;99839.22;;;22.69;42.57
53246;BME280;39569;51.090;-1.786;2023-03-16T12:18:03;99834.06;;;22.17;42.19
53246;BME280;39569;51.090;-1.786;2023-03-16T12:20:36;99828.88;;;22.40;41.61
53246;BME280;39569;51.090;-1.786;2023-03-16T12:23:11;99829.81;;;23.30;40.29
53246;BME280;39569;51.090;-1.786;2023-03-16T12:25:41;99828.09;;;22.25;42.14
53246;BME280;39569;51.090;-1.786;2023-03-16T12:28:20;99823.59;;;21.53;43.86
53246;BME280;39569;51.090;-1.786;2023-03-16T12:30:57;99838.78;;;20.88;44.96
53246;BME280;39569;51.090;-1.786;2023-03-16T12:33:35;99822.41;;;21.19;44.64
53246;BME280;39569;51.090;-1.786;2023-03-16T12:39:01;99816.38;;;21.12;44.15
53246;BME280;39569;51.090;-1.786;2023-03-16T12:41:38;99829.00;;;20.40;45.67
53246;BME280;39569;51.090;-1.786;2023-03-16T12:44:12;99818.47;;;19.37;47.90
53246;BME280;39569;51.090;-1.786;2023-03-16T12:46:50;99806.06;;;19.19;48.81
53246;BME280;39569;51.090;-1.786;2023-03-16T12:49:21;99813.56;;;19.12;50.02
53246;BME280;39569;51.090;-1.786;2023-03-16T12:51:58;99811.25;;;18.99;50.40
53246;BME280;39569;51.090;-1.786;2023-03-16T12:54:26;99801.34;;;18.88;50.56
53246;BME280;39569;51.090;-1.786;2023-03-16T12:56:59;99797.50;;;19.06;50.30
53246;BME280;39569;51.090;-1.786;2023-03-16T12:59:36;99806.28;;;18.53;51.51